createdAt,value
2022-09-18T00:00:48.364Z,52.42
2022-09-18T00:03:16.230Z,52.24
2022-09-18T00:05:43.386Z,52.23
2022-09-18T00:08:10.211Z,52.28
2022-09-18T00:10:44.823Z,52.07
2022-09-18T00:13:11.527Z,52.04
2022-09-18T00:15:38.205Z,52.18
2022-09-18T00:18:06.075Z,52.07
2022-09-18T00:20:36.674Z,51.95
2022-09-18T00:23:03.460Z,51.94
2022-09-18T00:25:30.205Z,52.12
2022-09-18T00:27:56.878Z,52.05
2022-09-18T00:30:23.558Z,51.91
2022-09-18T00:32:50.246Z,51.98
2022-09-18T00:35:16.975Z,52.16
2022-09-18T00:37:43.720Z,52.30
2022-09-18T00:40:11.194Z,51.93
2022-09-18T00:42:37.997Z,51.79
2022-09-18T00:45:05.103Z,52.12
2022-09-18T00:47:47.603Z,51.91
2022-09-18T00:50:21.785Z,51.89
2022-09-18T00:53:02.071Z,52.03
2022-09-18T00:55:32.031Z,52.00
2022-09-18T00:58:01.443Z,51.81
2022-09-18T01:00:29.574Z,51.89
2022-09-18T01:02:57.053Z,52.00
2022-09-18T01:05:29.618Z,51.85
2022-09-18T01:08:08.954Z,51.61
2022-09-18T01:10:54.037Z,51.70
2022-09-18T01:13:43.267Z,51.57
2022-09-18T01:16:39.518Z,51.57
2022-09-18T01:19:31.273Z,51.76
2022-09-18T01:22:08.070Z,51.37
2022-09-18T01:25:02.173Z,51.74
2022-09-18T01:27:52.432Z,51.41
2022-09-18T01:30:19.197Z,51.17
2022-09-18T01:33:06.748Z,51.39
2022-09-18T01:35:44.514Z,51.36
2022-09-18T01:38:24.217Z,51.73
2022-09-18T01:41:01.309Z,51.20
2022-09-18T01:43:30.426Z,51.57
2022-09-18T01:46:01.809Z,51.65
2022-09-18T01:48:34.992Z,51.58
2022-09-18T01:51:53.550Z,51.83
2022-09-18T01:54:24.982Z,51.36
2022-09-18T01:57:03.157Z,51.58
2022-09-18T01:59:49.385Z,51.45
2022-09-18T02:02:25.163Z,51.27
2022-09-18T02:04:57.534Z,51.24
2022-09-18T02:07:37.669Z,51.67
2022-09-18T02:10:05.266Z,51.23
2022-09-18T02:12:34.721Z,51.39
2022-09-18T02:15:06.214Z,51.68
2022-09-18T02:18:08.746Z,51.53
2022-09-18T02:20:38.628Z,51.49
2022-09-18T02:23:07.279Z,51.33
2022-09-18T02:25:56.045Z,51.71
2022-09-18T02:28:24.470Z,51.42
2022-09-18T02:30:51.638Z,51.66
2022-09-18T02:33:26.009Z,51.63
2022-09-18T02:36:21.486Z,51.46
2022-09-18T02:39:14.865Z,51.47
2022-09-18T02:42:06.323Z,51.78
2022-09-18T02:44:48.626Z,51.34
2022-09-18T02:47:34.394Z,51.61
2022-09-18T02:50:13.054Z,51.69
2022-09-18T02:53:10.853Z,51.69
2022-09-18T02:55:45.832Z,51.49
2022-09-18T02:58:17.993Z,51.60
2022-09-18T03:00:49.217Z,51.60
2022-09-18T03:03:31.532Z,51.40
2022-09-18T03:06:06.504Z,51.48
2022-09-18T03:08:35.711Z,51.50
2022-09-18T03:11:03.959Z,51.46
2022-09-18T03:13:30.979Z,51.35
2022-09-18T03:15:57.979Z,51.47
2022-09-18T03:18:25.767Z,51.34
2022-09-18T03:20:54.797Z,51.85
2022-09-18T03:23:23.631Z,51.67
2022-09-18T03:25:58.855Z,51.73
2022-09-18T03:28:25.571Z,51.66
2022-09-18T03:30:52.885Z,51.68
2022-09-18T03:33:20.520Z,51.47
2022-09-18T03:35:47.184Z,51.76
2022-09-18T03:38:14.131Z,51.49
2022-09-18T03:40:47.599Z,51.62
2022-09-18T03:43:15.958Z,51.65
2022-09-18T03:45:43.354Z,51.29
2022-09-18T03:48:10.462Z,51.40
2022-09-18T03:50:37.450Z,51.27
2022-09-18T03:53:08.492Z,51.65
2022-09-18T03:55:47.104Z,51.51
2022-09-18T03:58:32.470Z,51.61
2022-09-18T04:01:28.402Z,51.37
2022-09-18T04:04:30.415Z,51.66
2022-09-18T04:06:59.673Z,51.57
2022-09-18T04:09:58.802Z,51.38
2022-09-18T04:12:25.966Z,51.56
2022-09-18T04:15:14.841Z,51.56
2022-09-18T04:17:41.858Z,51.38
2022-09-18T04:20:09.458Z,51.18
2022-09-18T04:22:36.675Z,51.54
2022-09-18T04:25:04.422Z,51.31
2022-09-18T04:27:31.559Z,51.56
2022-09-18T04:29:59.111Z,51.42
2022-09-18T04:32:25.905Z,51.17
2022-09-18T04:34:52.545Z,51.30
2022-09-18T04:37:20.696Z,51.39
2022-09-18T04:39:49.685Z,51.00
2022-09-18T04:42:16.515Z,50.95
2022-09-18T04:44:45.182Z,51.21
2022-09-18T04:47:11.996Z,50.94
2022-09-18T04:49:38.847Z,51.13
2022-09-18T04:52:05.634Z,51.05
2022-09-18T04:54:32.327Z,51.04
2022-09-18T04:56:59.099Z,51.31
2022-09-18T04:59:25.910Z,50.99
2022-09-18T05:01:56.555Z,51.21
2022-09-18T05:04:23.323Z,50.97
2022-09-18T05:06:56.763Z,51.02
2022-09-18T05:09:23.544Z,51.07
2022-09-18T05:11:50.440Z,51.26
2022-09-18T05:14:18.022Z,51.21
2022-09-18T05:16:47.765Z,51.25
2022-09-18T05:19:34.659Z,50.99
2022-09-18T05:22:06.335Z,51.03
2022-09-18T05:24:36.416Z,50.35
2022-09-18T05:27:03.995Z,50.52
2022-09-18T05:29:30.675Z,51.02
2022-09-18T05:32:07.190Z,51.43
2022-09-18T05:34:35.714Z,51.89
2022-09-18T05:37:02.430Z,52.18
2022-09-18T05:39:29.267Z,52.42
2022-09-18T05:41:59.109Z,52.70
2022-09-18T05:44:25.813Z,52.85
2022-09-18T05:46:52.798Z,53.11
2022-09-18T05:49:20.055Z,53.11
2022-09-18T05:51:46.725Z,53.69
2022-09-18T05:54:15.783Z,53.81
2022-09-18T05:56:47.118Z,53.66
2022-09-18T05:59:14.924Z,53.81
2022-09-18T06:01:47.362Z,54.03
2022-09-18T06:04:36.947Z,54.18
2022-09-18T06:07:07.658Z,54.37
2022-09-18T06:09:35.064Z,54.49
2022-09-18T06:12:02.033Z,54.33
2022-09-18T06:14:32.178Z,54.28
2022-09-18T06:17:00.235Z,54.30
2022-09-18T06:19:27.009Z,54.54
2022-09-18T06:21:53.707Z,54.65
2022-09-18T06:24:21.478Z,55.07
2022-09-18T06:27:13.887Z,54.76
2022-09-18T06:29:40.696Z,54.92
2022-09-18T06:32:15.223Z,54.53
2022-09-18T06:34:42.646Z,54.79
2022-09-18T06:37:12.437Z,54.38
2022-09-18T06:39:41.993Z,54.51
2022-09-18T06:42:12.845Z,54.51
2022-09-18T06:44:58.091Z,54.20
2022-09-18T06:47:27.487Z,54.30
2022-09-18T06:49:55.352Z,54.12
2022-09-18T06:52:22.466Z,53.93
2022-09-18T06:54:49.213Z,54.18
2022-09-18T06:57:30.451Z,54.01
2022-09-18T06:59:57.237Z,53.82
2022-09-18T07:02:24.548Z,53.63
2022-09-18T07:05:25.637Z,53.73
2022-09-18T07:07:52.521Z,53.86
2022-09-18T07:10:19.598Z,53.28
2022-09-18T07:12:48.866Z,53.32
2022-09-18T07:15:19.195Z,53.50
2022-09-18T07:17:46.623Z,53.34
2022-09-18T07:20:16.028Z,53.35
2022-09-18T07:22:47.383Z,53.50
2022-09-18T07:25:15.404Z,53.49
2022-09-18T07:27:43.598Z,53.47
2022-09-18T07:30:11.995Z,53.66
2022-09-18T07:32:38.725Z,53.57
2022-09-18T07:35:12.197Z,53.56
2022-09-18T07:37:39.498Z,53.49
2022-09-18T07:40:14.537Z,53.08
2022-09-18T07:43:06.305Z,53.11
2022-09-18T07:45:33.262Z,52.88
2022-09-18T07:48:07.509Z,53.02
2022-09-18T07:50:43.401Z,52.85
2022-09-18T07:53:10.481Z,53.17
2022-09-18T07:55:42.495Z,52.95
2022-09-18T07:58:09.666Z,53.01
2022-09-18T08:00:51.918Z,52.58
2022-09-18T08:03:20.737Z,52.50
2022-09-18T08:06:04.968Z,52.38
2022-09-18T08:08:31.946Z,52.29
2022-09-18T08:11:09.449Z,52.12
2022-09-18T08:13:54.257Z,52.39
2022-09-18T08:16:29.911Z,52.07
2022-09-18T08:19:16.623Z,52.13
2022-09-18T08:21:59.772Z,52.26
2022-09-18T08:24:26.616Z,51.83
2022-09-18T08:26:53.803Z,51.67
2022-09-18T08:29:22.426Z,51.72
2022-09-18T08:31:59.733Z,51.97
2022-09-18T08:34:29.531Z,51.74
2022-09-18T08:36:56.419Z,51.44
2022-09-18T08:39:45.858Z,51.35
2022-09-18T08:42:26.380Z,51.04
2022-09-18T08:45:08.499Z,51.21
2022-09-18T08:47:45.831Z,51.13
2022-09-18T08:50:26.637Z,50.51
2022-09-18T08:53:33.273Z,50.45
2022-09-18T08:56:26.723Z,50.33
2022-09-18T08:59:22.042Z,50.58
2022-09-18T09:02:14.763Z,50.83
2022-09-18T09:04:42.633Z,50.25
2022-09-18T09:07:28.926Z,50.06
2022-09-18T09:10:18.689Z,50.27
2022-09-18T09:13:14.066Z,49.67
2022-09-18T09:16:02.380Z,49.98
2022-09-18T09:18:33.550Z,49.72
2022-09-18T09:21:18.677Z,49.68
2022-09-18T09:24:21.324Z,49.85
2022-09-18T09:27:26.902Z,49.59
2022-09-18T09:30:18.095Z,49.51
2022-09-18T09:33:17.209Z,49.50
2022-09-18T09:36:17.805Z,49.51
2022-09-18T09:39:09.405Z,49.81
2022-09-18T09:41:47.055Z,49.14
2022-09-18T09:44:23.397Z,49.22
2022-09-18T09:47:11.251Z,49.26
2022-09-18T09:49:55.667Z,48.80
2022-09-18T09:52:27.080Z,48.67
2022-09-18T09:55:13.806Z,48.90
2022-09-18T09:58:15.438Z,48.97
2022-09-18T10:01:00.772Z,48.10
2022-09-18T10:03:42.345Z,48.50
2022-09-18T10:06:29.242Z,48.32
2022-09-18T10:09:05.574Z,48.08
2022-09-18T10:11:35.482Z,48.38
2022-09-18T10:14:10.797Z,48.06
2022-09-18T10:16:41.741Z,48.73
2022-09-18T10:19:15.758Z,48.70
2022-09-18T10:21:42.910Z,47.75
2022-09-18T10:24:17.611Z,46.73
2022-09-18T10:27:03.791Z,46.59
2022-09-18T10:29:35.160Z,45.76
2022-09-18T10:32:05.081Z,45.54
2022-09-18T10:34:48.751Z,45.66
2022-09-18T10:37:37.793Z,45.84
2022-09-18T10:40:29.702Z,46.12
2022-09-18T10:42:59.449Z,45.96
2022-09-18T10:45:36.342Z,45.40
2022-09-18T10:48:23.063Z,45.16
2022-09-18T10:51:01.070Z,45.02
2022-09-18T10:54:32.039Z,45.13
2022-09-18T10:57:28.502Z,44.85
2022-09-18T10:59:57.191Z,44.82
2022-09-18T11:02:27.119Z,45.03
2022-09-18T11:04:55.430Z,44.86
2022-09-18T11:07:26.018Z,44.32
2022-09-18T11:09:53.183Z,43.99
2022-09-18T11:12:23.400Z,43.96
2022-09-18T11:15:09.813Z,44.04
2022-09-18T11:17:45.843Z,43.59
2022-09-18T11:20:35.134Z,42.28
2022-09-18T11:23:29.007Z,42.59
2022-09-18T11:26:12.326Z,42.49
2022-09-18T11:28:40.268Z,41.89
2022-09-18T11:31:19.372Z,42.13
2022-09-18T11:33:55.021Z,41.72
2022-09-18T11:36:31.819Z,41.61
2022-09-18T11:39:01.658Z,41.46
2022-09-18T11:41:38.806Z,41.93
2022-09-18T11:44:19.330Z,42.20
2022-09-18T11:47:18.317Z,41.87
2022-09-18T11:49:59.081Z,41.66
2022-09-18T11:52:45.348Z,41.74
2022-09-18T11:55:33.679Z,41.82
2022-09-18T11:58:23.335Z,40.73
2022-09-18T12:00:59.068Z,41.31
2022-09-18T12:03:36.080Z,41.30
2022-09-18T12:06:11.786Z,40.52
2022-09-18T12:09:00.376Z,41.10
2022-09-18T12:11:41.245Z,41.00
2022-09-18T12:14:09.518Z,41.02
2022-09-18T12:17:01.052Z,41.21
2022-09-18T12:19:37.494Z,41.06
2022-09-18T12:22:16.709Z,41.13
2022-09-18T12:24:45.070Z,40.86
2022-09-18T12:27:31.605Z,40.66
2022-09-18T12:30:16.581Z,41.05
2022-09-18T12:32:46.422Z,40.65
2022-09-18T12:35:18.843Z,40.35
2022-09-18T12:37:53.318Z,40.50
2022-09-18T12:40:39.209Z,40.37
2022-09-18T12:43:20.655Z,40.33
2022-09-18T12:45:53.491Z,40.45
2022-09-18T12:48:46.835Z,39.80
2022-09-18T12:51:35.494Z,39.85
2022-09-18T12:54:08.190Z,39.49
2022-09-18T12:56:48.286Z,39.45
2022-09-18T12:59:54.214Z,39.15
2022-09-18T13:02:28.602Z,38.30
2022-09-18T13:05:04.573Z,38.81
2022-09-18T13:07:40.106Z,39.30
2022-09-18T13:10:25.937Z,39.20
2022-09-18T13:13:17.398Z,39.19
2022-09-18T13:16:30.018Z,39.23
2022-09-18T13:19:07.558Z,39.43
2022-09-18T13:21:41.718Z,38.95
2022-09-18T13:24:14.409Z,38.77
2022-09-18T13:26:42.603Z,39.00
2022-09-18T13:30:03.804Z,38.78
2022-09-18T13:32:37.418Z,38.52
2022-09-18T13:35:14.693Z,38.17
2022-09-18T13:37:42.445Z,38.26
2022-09-18T13:40:39.138Z,38.02
2022-09-18T13:43:42.559Z,38.32
2022-09-18T13:46:28.486Z,37.32
2022-09-18T13:48:56.829Z,37.67
2022-09-18T13:51:30.700Z,37.68
2022-09-18T13:54:18.310Z,37.92
2022-09-18T13:57:17.268Z,37.18
2022-09-18T13:59:45.595Z,36.88
2022-09-18T14:02:27.305Z,37.19
2022-09-18T14:05:01.523Z,37.43
2022-09-18T14:07:28.418Z,36.51
2022-09-18T14:10:03.038Z,36.75
2022-09-18T14:12:32.847Z,37.34
2022-09-18T14:15:17.479Z,37.37
2022-09-18T14:18:05.573Z,37.03
2022-09-18T14:20:33.167Z,36.93
2022-09-18T14:23:36.979Z,36.90
2022-09-18T14:26:29.663Z,36.94
2022-09-18T14:29:20.108Z,37.30
2022-09-18T14:31:51.129Z,37.27
2022-09-18T14:34:29.174Z,37.86
2022-09-18T14:37:01.906Z,37.82
2022-09-18T14:39:37.121Z,38.20
2022-09-18T14:42:19.490Z,37.75
2022-09-18T14:44:52.627Z,38.54
2022-09-18T14:47:21.552Z,38.76
2022-09-18T14:49:49.262Z,38.33
2022-09-18T14:52:23.476Z,38.90
2022-09-18T14:54:52.541Z,38.71
2022-09-18T14:57:23.035Z,39.12
2022-09-18T14:59:57.001Z,39.01
2022-09-18T15:02:35.686Z,39.31
2022-09-18T15:05:09.404Z,38.74
2022-09-18T15:07:39.873Z,39.16
2022-09-18T15:10:07.049Z,38.70
2022-09-18T15:12:35.649Z,38.81
2022-09-18T15:15:26.565Z,38.93
2022-09-18T15:17:54.315Z,38.52
2022-09-18T15:20:22.169Z,38.02
2022-09-18T15:22:48.984Z,37.72
2022-09-18T15:25:16.756Z,37.48
2022-09-18T15:27:44.361Z,36.65
2022-09-18T15:30:18.657Z,36.89
2022-09-18T15:32:52.774Z,37.02
2022-09-18T15:35:23.632Z,36.76
2022-09-18T15:38:03.315Z,36.79
2022-09-18T15:40:33.876Z,37.04
2022-09-18T15:43:04.493Z,37.89
2022-09-18T15:45:32.107Z,38.05
2022-09-18T15:48:00.764Z,38.19
2022-09-18T15:50:36.325Z,38.56
2022-09-18T15:53:20.071Z,39.20
2022-09-18T15:55:59.557Z,38.65
2022-09-18T15:58:45.766Z,39.40
2022-09-18T16:01:18.787Z,39.10
2022-09-18T16:03:46.945Z,39.52
2022-09-18T16:06:35.481Z,39.60
2022-09-18T16:09:05.164Z,39.50
2022-09-18T16:11:40.307Z,39.98
2022-09-18T16:14:45.109Z,40.14
2022-09-18T16:17:32.805Z,40.22
2022-09-18T16:20:30.304Z,40.19
2022-09-18T16:23:24.648Z,40.64
2022-09-18T16:26:08.827Z,40.56
2022-09-18T16:28:46.096Z,41.15
2022-09-18T16:31:16.334Z,41.23
2022-09-18T16:34:10.490Z,41.10
2022-09-18T16:36:39.572Z,41.60
2022-09-18T16:39:08.699Z,41.75
2022-09-18T16:41:36.101Z,41.94
2022-09-18T16:44:04.909Z,42.00
2022-09-18T16:46:43.735Z,42.28
2022-09-18T16:49:11.528Z,42.47
2022-09-18T16:51:38.387Z,42.48
2022-09-18T16:54:05.557Z,42.86
2022-09-18T16:56:35.951Z,42.70
2022-09-18T16:59:03.715Z,43.41
2022-09-18T17:01:39.564Z,43.38
2022-09-18T17:04:15.357Z,43.69
2022-09-18T17:06:42.452Z,44.15
2022-09-18T17:09:09.161Z,44.03
2022-09-18T17:11:35.842Z,44.57
2022-09-18T17:14:03.873Z,44.50
2022-09-18T17:16:44.264Z,44.96
2022-09-18T17:19:12.451Z,45.35
2022-09-18T17:21:39.251Z,45.76
2022-09-18T17:24:06.709Z,45.74
2022-09-18T17:26:35.624Z,46.23
2022-09-18T17:29:02.446Z,46.33
2022-09-18T17:31:29.428Z,46.93
2022-09-18T17:33:56.343Z,47.12
2022-09-18T17:36:23.224Z,47.25
2022-09-18T17:38:50.110Z,47.24
2022-09-18T17:41:18.561Z,47.16
2022-09-18T17:43:45.578Z,47.46
2022-09-18T17:46:13.459Z,47.62
2022-09-18T17:48:40.160Z,47.36
2022-09-18T17:51:12.846Z,47.54
2022-09-18T17:53:41.443Z,47.90
2022-09-18T17:56:32.567Z,48.34
2022-09-18T17:59:02.510Z,48.40
2022-09-18T18:01:29.853Z,48.68
2022-09-18T18:03:57.327Z,48.77
2022-09-18T18:06:24.476Z,49.23
2022-09-18T18:08:51.389Z,49.01
2022-09-18T18:11:19.809Z,48.94
2022-09-18T18:13:49.876Z,49.06
2022-09-18T18:16:23.925Z,49.12
2022-09-18T18:18:51.646Z,49.41
2022-09-18T18:21:19.015Z,49.28
2022-09-18T18:23:46.172Z,49.08
2022-09-18T18:26:13.045Z,49.22
2022-09-18T18:28:41.008Z,49.20
2022-09-18T18:31:12.221Z,48.77
2022-09-18T18:33:41.156Z,48.75
2022-09-18T18:36:13.765Z,48.96
2022-09-18T18:38:42.177Z,48.64
2022-09-18T18:41:09.640Z,48.62
2022-09-18T18:43:38.117Z,48.83
2022-09-18T18:46:07.037Z,48.76
2022-09-18T18:48:34.596Z,48.52
2022-09-18T18:51:09.206Z,48.29
2022-09-18T18:53:36.317Z,48.50
2022-09-18T18:56:08.731Z,48.66
2022-09-18T18:58:35.965Z,48.02
2022-09-18T19:01:07.971Z,48.07
2022-09-18T19:03:39.860Z,48.25
2022-09-18T19:06:07.210Z,48.03
2022-09-18T19:08:35.748Z,48.07
2022-09-18T19:11:03.065Z,47.83
2022-09-18T19:13:30.108Z,48.15
2022-09-18T19:15:57.064Z,47.99
2022-09-18T19:18:23.886Z,47.85
2022-09-18T19:20:53.573Z,47.63
2022-09-18T19:23:21.139Z,47.61
2022-09-18T19:25:47.822Z,47.96
2022-09-18T19:28:17.361Z,47.89
2022-09-18T19:30:47.217Z,47.63
2022-09-18T19:33:15.278Z,47.86
2022-09-18T19:35:42.191Z,47.58
2022-09-18T19:38:09.576Z,47.61
2022-09-18T19:40:38.874Z,47.84
2022-09-18T19:43:08.818Z,47.90
2022-09-18T19:45:37.373Z,47.37
2022-09-18T19:48:05.669Z,47.46
2022-09-18T19:50:34.301Z,47.57
2022-09-18T19:53:01.124Z,47.44
2022-09-18T19:55:28.258Z,47.30
2022-09-18T19:57:57.022Z,46.99
2022-09-18T20:00:24.573Z,47.11
2022-09-18T20:02:51.340Z,47.15
2022-09-18T20:05:18.535Z,47.26
2022-09-18T20:07:46.094Z,47.33
2022-09-18T20:10:14.321Z,47.36
2022-09-18T20:12:42.089Z,46.98
2022-09-18T20:15:09.992Z,46.79
2022-09-18T20:17:37.349Z,47.31
2022-09-18T20:20:08.853Z,46.90
2022-09-18T20:22:39.739Z,47.01
2022-09-18T20:25:08.117Z,46.94
2022-09-18T20:27:40.761Z,47.17
2022-09-18T20:30:09.805Z,46.79
2022-09-18T20:32:36.497Z,46.82
2022-09-18T20:35:03.314Z,46.59
2022-09-18T20:37:32.966Z,46.58
2022-09-18T20:40:03.391Z,46.86
2022-09-18T20:42:34.529Z,46.77
2022-09-18T20:45:04.500Z,46.51
2022-09-18T20:47:36.001Z,46.45
2022-09-18T20:50:06.505Z,46.88
2022-09-18T20:52:35.984Z,46.47
2022-09-18T20:55:05.126Z,46.27
2022-09-18T20:57:32.505Z,46.64
2022-09-18T20:59:59.588Z,46.68
2022-09-18T21:02:26.558Z,46.25
2022-09-18T21:04:54.497Z,46.20
2022-09-18T21:07:21.399Z,46.40
2022-09-18T21:09:49.501Z,46.01
2022-09-18T21:12:16.208Z,46.42
2022-09-18T21:14:42.859Z,46.30
2022-09-18T21:17:10.092Z,45.95
2022-09-18T21:19:38.405Z,46.17
2022-09-18T21:22:05.143Z,45.92
2022-09-18T21:24:32.702Z,45.93
2022-09-18T21:26:59.405Z,45.92
2022-09-18T21:29:27.554Z,45.88
2022-09-18T21:31:56.851Z,46.07
2022-09-18T21:34:31.076Z,45.74
2022-09-18T21:37:00.088Z,45.62
2022-09-18T21:39:31.125Z,45.35
2022-09-18T21:41:59.490Z,45.53
2022-09-18T21:44:28.150Z,45.56
2022-09-18T21:46:58.912Z,45.67
2022-09-18T21:49:27.844Z,45.42
2022-09-18T21:52:04.851Z,45.49
2022-09-18T21:54:34.876Z,45.52
2022-09-18T21:57:01.929Z,45.70
2022-09-18T21:59:33.362Z,45.54
2022-09-18T22:02:00.957Z,45.48
2022-09-18T22:04:29.666Z,45.54
2022-09-18T22:06:58.111Z,45.38
2022-09-18T22:09:30.289Z,45.16
2022-09-18T22:11:57.691Z,45.12
2022-09-18T22:14:29.813Z,45.60
2022-09-18T22:16:57.768Z,45.22
2022-09-18T22:19:24.502Z,45.74
2022-09-18T22:21:51.859Z,45.33
2022-09-18T22:24:23.449Z,45.41
2022-09-18T22:27:00.061Z,45.40
2022-09-18T22:29:30.552Z,45.73
2022-09-18T22:31:57.524Z,45.35
2022-09-18T22:34:26.391Z,45.70
2022-09-18T22:36:53.993Z,45.41
2022-09-18T22:39:21.730Z,45.43
2022-09-18T22:41:49.422Z,45.65
2022-09-18T22:44:16.249Z,45.51
2022-09-18T22:46:44.775Z,45.73
2022-09-18T22:49:16.346Z,45.35
2022-09-18T22:51:44.616Z,45.24
2022-09-18T22:54:12.307Z,45.23
2022-09-18T22:56:44.878Z,45.59
2022-09-18T22:59:12.993Z,45.21
2022-09-18T23:01:52.724Z,45.76
2022-09-18T23:04:21.177Z,45.18
2022-09-18T23:06:48.360Z,45.34
2022-09-18T23:09:16.584Z,45.53
2022-09-18T23:11:44.908Z,45.52
2022-09-18T23:14:20.757Z,45.79
2022-09-18T23:16:49.073Z,45.30
2022-09-18T23:19:26.995Z,45.52
2022-09-18T23:21:54.204Z,45.80
2022-09-18T23:24:22.401Z,45.67
2022-09-18T23:26:50.792Z,45.78
2022-09-18T23:29:20.807Z,45.45
2022-09-18T23:31:50.538Z,45.61
2022-09-18T23:34:20.033Z,45.44
2022-09-18T23:36:52.406Z,45.56
2022-09-18T23:39:25.269Z,45.37
2022-09-18T23:41:52.493Z,45.70
2022-09-18T23:44:20.893Z,45.36
2022-09-18T23:46:48.048Z,45.42
2022-09-18T23:49:16.204Z,45.34
2022-09-18T23:51:46.357Z,45.21
2022-09-18T23:54:24.466Z,45.43
2022-09-18T23:56:52.104Z,45.70
2022-09-18T23:59:22.892Z,45.17
